createdAt,value
2017-03-19T00:00:40.179Z,1001.51
2017-03-19T00:01:20.647Z,1001.55
2017-03-19T00:02:01.081Z,1001.55
2017-03-19T00:02:41.581Z,1001.59
2017-03-19T00:03:22.053Z,1001.65
2017-03-19T00:04:02.548Z,1001.59
2017-03-19T00:04:43.036Z,1001.54
2017-03-19T00:05:23.526Z,1001.52
2017-03-19T00:06:04.026Z,1001.5
2017-03-19T00:06:44.504Z,1001.54
2017-03-19T00:07:24.995Z,1001.59
2017-03-19T00:08:05.485Z,1001.57
2017-03-19T00:08:45.966Z,1001.59
2017-03-19T00:09:26.434Z,1001.61
2017-03-19T00:10:06.915Z,1001.6
2017-03-19T00:10:47.407Z,1001.5
2017-03-19T00:11:27.898Z,1001.56
2017-03-19T00:12:08.386Z,1001.48
2017-03-19T00:12:48.885Z,1001.51
2017-03-19T00:13:29.376Z,1001.43
2017-03-19T00:14:09.855Z,1001.53
2017-03-19T00:14:50.358Z,1001.48
2017-03-19T00:15:30.854Z,1001.55
2017-03-19T00:16:11.340Z,1001.47
2017-03-19T00:16:51.836Z,1001.48
2017-03-19T00:17:32.328Z,1001.39
2017-03-19T00:18:12.809Z,1001.5
2017-03-19T00:18:53.302Z,1001.53
2017-03-19T00:19:33.810Z,1001.49
2017-03-19T00:20:14.294Z,1001.51
2017-03-19T00:20:54.791Z,1001.52
2017-03-19T00:21:35.281Z,1001.54
2017-03-19T00:22:15.771Z,1001.5
2017-03-19T00:22:56.274Z,1001.53
2017-03-19T00:23:36.767Z,1001.48
2017-03-19T00:24:17.248Z,1001.44
2017-03-19T00:24:57.748Z,1001.48
2017-03-19T00:25:38.240Z,1001.48
2017-03-19T00:26:18.725Z,1001.49
2017-03-19T00:26:59.229Z,1001.45
2017-03-19T00:27:39.717Z,1001.45
2017-03-19T00:28:20.202Z,1001.47
2017-03-19T00:29:00.700Z,1001.42
2017-03-19T00:29:41.189Z,1001.34
2017-03-19T00:30:21.676Z,1001.4
2017-03-19T00:31:02.172Z,1001.44
2017-03-19T00:31:42.667Z,1001.41
2017-03-19T00:32:23.153Z,1001.35
2017-03-19T00:33:03.637Z,1001.39
2017-03-19T00:33:44.144Z,1001.27
2017-03-19T00:34:24.633Z,1001.43
2017-03-19T00:35:05.134Z,1001.46
2017-03-19T00:35:45.622Z,1001.45
2017-03-19T00:36:26.105Z,1001.45
2017-03-19T00:37:07.244Z,1001.43
2017-03-19T00:37:47.736Z,1001.42
2017-03-19T00:38:28.227Z,1001.5
2017-03-19T00:39:08.732Z,1001.49
2017-03-19T00:39:49.218Z,1001.43
2017-03-19T00:40:29.722Z,1001.43
2017-03-19T00:41:10.211Z,1001.46
2017-03-19T00:41:50.700Z,1001.42
2017-03-19T00:42:31.198Z,1001.39
2017-03-19T00:43:11.686Z,1001.39
2017-03-19T00:43:52.169Z,1001.36
2017-03-19T00:44:32.672Z,1001.34
2017-03-19T00:45:13.163Z,1001.43
2017-03-19T00:45:53.648Z,1001.4
2017-03-19T00:46:34.153Z,1001.4
2017-03-19T00:47:14.641Z,1001.43
2017-03-19T00:47:55.125Z,1001.43
2017-03-19T00:48:35.629Z,1001.36
2017-03-19T00:49:16.117Z,1001.36
2017-03-19T00:49:56.638Z,1001.43
2017-03-19T00:50:37.102Z,1001.49
2017-03-19T00:51:17.593Z,1001.37
2017-03-19T00:51:58.082Z,1001.46
2017-03-19T00:52:38.583Z,1001.27
2017-03-19T00:53:19.072Z,1001.36
2017-03-19T00:53:59.562Z,1001.3
2017-03-19T00:54:40.048Z,1001.39
2017-03-19T00:55:20.551Z,1001.34
2017-03-19T00:56:01.034Z,1001.32
2017-03-19T00:56:41.533Z,1001.41
2017-03-19T00:57:22.024Z,1001.39
2017-03-19T00:58:02.514Z,1001.39
2017-03-19T00:58:43.015Z,1001.49
2017-03-19T00:59:23.501Z,1001.42
2017-03-19T01:00:03.990Z,1001.46
2017-03-19T01:00:44.490Z,1001.45
2017-03-19T01:01:24.978Z,1001.44
2017-03-19T01:02:05.468Z,1001.48
2017-03-19T01:02:45.968Z,1001.38
2017-03-19T01:03:26.456Z,1001.36
2017-03-19T01:04:06.936Z,1001.39
2017-03-19T01:04:47.424Z,1001.36
2017-03-19T01:05:27.923Z,1001.43
2017-03-19T01:06:08.416Z,1001.37
2017-03-19T01:06:48.886Z,1001.37
2017-03-19T01:07:29.388Z,1001.35
2017-03-19T01:08:09.877Z,1001.32
2017-03-19T01:08:50.362Z,1001.4
2017-03-19T01:09:30.858Z,1001.38
2017-03-19T01:10:11.350Z,1001.35
2017-03-19T01:10:51.834Z,1001.37
2017-03-19T01:11:32.331Z,1001.39
2017-03-19T01:12:12.844Z,1001.36
2017-03-19T01:12:53.310Z,1001.35
2017-03-19T01:13:33.802Z,1001.28
2017-03-19T01:14:14.288Z,1001.36
2017-03-19T01:14:54.781Z,1001.41
2017-03-19T01:15:35.265Z,1001.32
2017-03-19T01:16:15.753Z,1001.32
2017-03-19T01:16:56.238Z,1001.32
2017-03-19T01:17:36.718Z,1001.32
2017-03-19T01:18:17.201Z,1001.31
2017-03-19T01:18:57.702Z,1001.3
2017-03-19T01:19:38.195Z,1001.3
2017-03-19T01:20:18.670Z,1001.21
2017-03-19T01:20:59.162Z,1001.28
2017-03-19T01:21:39.655Z,1001.21
2017-03-19T01:22:20.142Z,1001.25
2017-03-19T01:23:01.509Z,1001.22
2017-03-19T01:23:42.005Z,1001.17
2017-03-19T01:24:22.504Z,1001.15
2017-03-19T01:25:02.990Z,1001.19
2017-03-19T01:25:43.517Z,1001.13
2017-03-19T01:26:23.984Z,1001.09
2017-03-19T01:27:04.470Z,1001.09
2017-03-19T01:27:44.967Z,1001.11
2017-03-19T01:28:25.467Z,1001.03
2017-03-19T01:29:05.947Z,1001.08
2017-03-19T01:29:46.441Z,1001.07
2017-03-19T01:30:26.934Z,1000.94
2017-03-19T01:31:07.424Z,1000.99
2017-03-19T01:31:47.913Z,1001.03
2017-03-19T01:32:28.417Z,1001
2017-03-19T01:33:08.900Z,1001.04
2017-03-19T01:33:49.396Z,1001.03
2017-03-19T01:34:29.897Z,1001.09
2017-03-19T01:35:10.379Z,1001.08
2017-03-19T01:35:50.881Z,1001.09
2017-03-19T01:36:31.385Z,1001.11
2017-03-19T01:37:11.869Z,1001.09
2017-03-19T01:37:52.360Z,1001.13
2017-03-19T01:38:32.852Z,1001.07
2017-03-19T01:39:13.350Z,1001.14
2017-03-19T01:39:53.830Z,1001.12
2017-03-19T01:40:34.328Z,1001.18
2017-03-19T01:41:14.816Z,1001.12
2017-03-19T01:41:55.309Z,1001.18
2017-03-19T01:42:35.802Z,1001.19
2017-03-19T01:43:16.289Z,1001.21
2017-03-19T01:43:56.790Z,1001.21
2017-03-19T01:44:37.274Z,1001.25
2017-03-19T01:45:17.762Z,1001.27
2017-03-19T01:45:58.265Z,1001.26
2017-03-19T01:46:38.760Z,1001.21
2017-03-19T01:47:19.247Z,1001.17
2017-03-19T01:47:59.743Z,1001.22
2017-03-19T01:48:40.238Z,1001.26
2017-03-19T01:49:20.729Z,1001.21
2017-03-19T01:50:01.220Z,1001.23
2017-03-19T01:50:41.708Z,1001.34
2017-03-19T01:51:22.207Z,1001.3
2017-03-19T01:52:02.696Z,1001.25
2017-03-19T01:52:43.181Z,1001.23
2017-03-19T01:53:23.670Z,1001.2
2017-03-19T01:54:04.164Z,1001.23
2017-03-19T01:54:44.665Z,1001.17
2017-03-19T01:55:25.162Z,1001.13
2017-03-19T01:56:05.646Z,1001.13
2017-03-19T01:56:46.139Z,1001.16
2017-03-19T01:57:26.639Z,1001.18
2017-03-19T01:58:07.123Z,1001.2
2017-03-19T01:58:47.615Z,1001.16
2017-03-19T01:59:28.073Z,1001.22
2017-03-19T02:00:08.562Z,1001.11
2017-03-19T02:00:49.088Z,1001.15
2017-03-19T02:01:29.561Z,1001.15
2017-03-19T02:02:10.044Z,1001.13
2017-03-19T02:02:50.540Z,1001.2
2017-03-19T02:03:31.031Z,1001.21
2017-03-19T02:04:11.502Z,1001.2
2017-03-19T02:04:51.945Z,1001.26
2017-03-19T02:05:32.402Z,1001.16
2017-03-19T02:06:12.826Z,1001.2
2017-03-19T02:08:10.445Z,1001.24
2017-03-19T02:08:50.936Z,1001.27
2017-03-19T02:09:31.429Z,1001.29
2017-03-19T02:10:11.925Z,1001.31
2017-03-19T02:10:52.422Z,1001.28
2017-03-19T02:11:32.912Z,1001.27
2017-03-19T02:12:14.234Z,1001.29
2017-03-19T02:12:54.716Z,1001.22
2017-03-19T02:13:35.199Z,1001.25
2017-03-19T02:14:15.694Z,1001.27
2017-03-19T02:14:56.183Z,1001.29
2017-03-19T02:15:36.666Z,1001.28
2017-03-19T02:16:17.170Z,1001.39
2017-03-19T02:16:57.663Z,1001.33
2017-03-19T02:17:38.153Z,1001.38
2017-03-19T02:18:18.653Z,1001.31
2017-03-19T02:18:59.131Z,1001.33
2017-03-19T02:19:39.599Z,1001.34
2017-03-19T02:20:20.053Z,1001.32
2017-03-19T02:21:00.546Z,1001.36
2017-03-19T02:21:41.046Z,1001.29
2017-03-19T02:22:21.508Z,1001.33
2017-03-19T02:23:01.983Z,1001.25
2017-03-19T02:23:42.443Z,1001.36
2017-03-19T02:24:22.883Z,1001.32
2017-03-19T02:26:35.591Z,1001.34
2017-03-19T02:27:16.086Z,1001.27
2017-03-19T02:27:56.565Z,1001.26
2017-03-19T02:28:37.043Z,1001.25
2017-03-19T02:29:17.531Z,1001.24
2017-03-19T02:29:58.018Z,1001.26
2017-03-19T02:30:38.505Z,1001.33
2017-03-19T02:31:18.998Z,1001.26
2017-03-19T02:31:59.494Z,1001.36
2017-03-19T02:32:39.982Z,1001.29
2017-03-19T02:33:20.480Z,1001.33
2017-03-19T02:34:00.959Z,1001.27
2017-03-19T02:34:41.443Z,1001.3
2017-03-19T02:35:21.925Z,1001.31
2017-03-19T02:36:02.407Z,1001.31
2017-03-19T02:36:42.903Z,1001.3
2017-03-19T02:37:23.384Z,1001.32
2017-03-19T02:38:03.870Z,1001.33
2017-03-19T02:38:44.379Z,1001.24
2017-03-19T02:39:24.862Z,1001.33
2017-03-19T02:40:05.344Z,1001.3
2017-03-19T02:40:45.828Z,1001.34
2017-03-19T02:41:26.315Z,1001.33
2017-03-19T02:42:06.803Z,1001.34
2017-03-19T02:42:47.299Z,1001.31
2017-03-19T02:43:27.796Z,1001.3
2017-03-19T02:44:08.288Z,1001.32
2017-03-19T02:44:48.780Z,1001.33
2017-03-19T02:45:29.274Z,1001.28
2017-03-19T02:46:09.755Z,1001.35
2017-03-19T02:46:50.247Z,1001.36
2017-03-19T02:47:30.715Z,1001.34
2017-03-19T02:48:11.206Z,1001.37
2017-03-19T02:48:51.695Z,1001.39
2017-03-19T02:49:32.190Z,1001.38
2017-03-19T02:50:12.682Z,1001.42
2017-03-19T02:50:53.169Z,1001.44
2017-03-19T02:51:33.647Z,1001.37
2017-03-19T02:52:14.162Z,1001.4
2017-03-19T02:52:54.647Z,1001.34
2017-03-19T02:53:35.138Z,1001.35
2017-03-19T02:54:15.642Z,1001.35
2017-03-19T02:54:56.142Z,1001.33
2017-03-19T02:55:36.628Z,1001.32
2017-03-19T02:56:17.115Z,1001.31
2017-03-19T02:56:57.609Z,1001.36
2017-03-19T02:57:38.108Z,1001.41
2017-03-19T02:58:18.601Z,1001.33
2017-03-19T02:58:59.075Z,1001.33
2017-03-19T02:59:39.558Z,1001.34
2017-03-19T03:00:20.022Z,1001.33
2017-03-19T03:01:00.528Z,1001.33
2017-03-19T03:01:41.013Z,1001.35
2017-03-19T03:02:21.514Z,1001.36
2017-03-19T03:03:02.004Z,1001.33
2017-03-19T03:03:42.491Z,1001.31
2017-03-19T03:04:22.985Z,1001.29
2017-03-19T03:05:03.479Z,1001.3
2017-03-19T03:05:43.973Z,1001.27
2017-03-19T03:06:24.463Z,1001.3
2017-03-19T03:07:04.960Z,1001.31
2017-03-19T03:07:45.462Z,1001.31
2017-03-19T03:08:25.948Z,1001.27
2017-03-19T03:09:06.437Z,1001.27
2017-03-19T03:09:46.925Z,1001.29
2017-03-19T03:10:27.423Z,1001.3
2017-03-19T03:11:07.912Z,1001.31
2017-03-19T03:11:48.396Z,1001.34
2017-03-19T03:12:28.895Z,1001.31
2017-03-19T03:13:09.394Z,1001.32
2017-03-19T03:13:49.886Z,1001.32
2017-03-19T03:14:30.383Z,1001.37
2017-03-19T03:15:10.867Z,1001.32
2017-03-19T03:15:51.353Z,1001.32
2017-03-19T03:16:31.856Z,1001.33
2017-03-19T03:17:12.352Z,1001.35
2017-03-19T03:17:52.832Z,1001.33
2017-03-19T03:18:33.320Z,1001.31
2017-03-19T03:19:13.819Z,1001.34
2017-03-19T03:19:54.313Z,1001.32
2017-03-19T03:20:34.806Z,1001.31
2017-03-19T03:21:15.298Z,1001.32
2017-03-19T03:21:55.786Z,1001.39
2017-03-19T03:22:36.290Z,1001.35
2017-03-19T03:23:16.781Z,1001.31
2017-03-19T03:23:57.267Z,1001.34
2017-03-19T03:24:37.750Z,1001.32
2017-03-19T03:25:18.250Z,1001.37
2017-03-19T03:25:58.731Z,1001.34
2017-03-19T03:26:39.803Z,1001.33
2017-03-19T03:27:20.282Z,1001.41
2017-03-19T03:28:00.775Z,1001.36
2017-03-19T03:28:41.266Z,1001.41
2017-03-19T03:29:21.739Z,1001.34
2017-03-19T03:30:02.218Z,1001.36
2017-03-19T03:30:42.700Z,1001.37
2017-03-19T03:33:00.506Z,1001.21
2017-03-19T03:33:40.984Z,1001.24
2017-03-19T03:34:21.482Z,1001.2
2017-03-19T03:35:01.979Z,1001.24
2017-03-19T03:35:42.469Z,1001.19
2017-03-19T03:36:22.965Z,1001.16
2017-03-19T03:37:03.455Z,1001.16
2017-03-19T03:37:43.943Z,1001.28
2017-03-19T03:38:24.428Z,1001.27
2017-03-19T03:39:04.913Z,1001.24
2017-03-19T03:39:45.406Z,1001.27
2017-03-19T03:40:25.898Z,1001.29
2017-03-19T03:41:06.396Z,1001.33
2017-03-19T03:41:46.883Z,1001.29
2017-03-19T03:42:27.371Z,1001.29
2017-03-19T03:43:07.863Z,1001.28
2017-03-19T03:43:48.350Z,1001.29
2017-03-19T03:44:28.835Z,1001.31
2017-03-19T03:45:09.320Z,1001.35
2017-03-19T03:45:49.830Z,1001.35
2017-03-19T03:46:30.288Z,1001.36
2017-03-19T03:47:10.778Z,1001.35
2017-03-19T03:47:51.267Z,1001.35
2017-03-19T03:48:31.761Z,1001.34
2017-03-19T03:49:12.238Z,1001.37
2017-03-19T03:49:52.732Z,1001.35
2017-03-19T03:50:33.195Z,1001.35
2017-03-19T03:51:13.692Z,1001.33
2017-03-19T03:51:54.169Z,1001.36
2017-03-19T03:52:34.642Z,1001.38
2017-03-19T03:53:15.139Z,1001.35
2017-03-19T03:53:55.626Z,1001.38
2017-03-19T03:54:36.115Z,1001.33
2017-03-19T03:55:16.604Z,1001.29
2017-03-19T03:55:57.049Z,1001.34
2017-03-19T03:56:38.198Z,1001.31
2017-03-19T03:57:18.685Z,1001.29
2017-03-19T03:57:59.164Z,1001.33
2017-03-19T03:58:39.664Z,1001.33
2017-03-19T03:59:20.157Z,1001.35
2017-03-19T04:00:00.626Z,1001.32
2017-03-19T04:00:41.129Z,1001.38
2017-03-19T04:01:21.631Z,1001.33
2017-03-19T04:02:02.117Z,1001.39
2017-03-19T04:02:42.612Z,1001.35
2017-03-19T04:03:23.112Z,1001.41
2017-03-19T04:04:03.600Z,1001.41
2017-03-19T04:04:44.086Z,1001.43
2017-03-19T04:05:24.573Z,1001.48
2017-03-19T04:06:05.077Z,1001.48
2017-03-19T04:06:45.565Z,1001.44
2017-03-19T04:07:26.058Z,1001.49
2017-03-19T04:08:06.548Z,1001.5
2017-03-19T04:08:47.039Z,1001.48
2017-03-19T04:09:27.521Z,1001.47
2017-03-19T04:10:08.016Z,1001.56
2017-03-19T04:10:48.515Z,1001.5
2017-03-19T04:11:29.002Z,1001.54
2017-03-19T04:12:09.476Z,1001.51
2017-03-19T04:12:49.907Z,1001.52
2017-03-19T04:15:07.713Z,1001.62
2017-03-19T04:15:48.204Z,1001.62
2017-03-19T04:16:28.685Z,1001.56
2017-03-19T04:17:09.176Z,1001.62
2017-03-19T04:17:49.670Z,1001.6
2017-03-19T04:18:30.147Z,1001.61
2017-03-19T04:19:10.635Z,1001.66
2017-03-19T04:19:51.121Z,1001.68
2017-03-19T04:20:31.625Z,1001.61
2017-03-19T04:21:12.088Z,1001.65
2017-03-19T04:21:52.571Z,1001.64
2017-03-19T04:22:33.052Z,1001.66
2017-03-19T04:23:13.514Z,1001.65
2017-03-19T04:23:54.019Z,1001.68
2017-03-19T04:24:34.495Z,1001.66
2017-03-19T04:25:15.702Z,1001.62
2017-03-19T04:25:56.186Z,1001.62
2017-03-19T04:26:36.675Z,1001.66
2017-03-19T04:27:17.163Z,1001.68
2017-03-19T04:27:57.658Z,1001.65
2017-03-19T04:28:38.148Z,1001.68
2017-03-19T04:29:18.633Z,1001.69
2017-03-19T04:29:59.102Z,1001.64
2017-03-19T04:30:39.595Z,1001.67
2017-03-19T04:31:20.085Z,1001.67
2017-03-19T04:32:00.569Z,1001.62
2017-03-19T04:32:41.004Z,1001.65
2017-03-19T04:33:21.460Z,1001.64
2017-03-19T04:34:01.967Z,1001.61
2017-03-19T04:34:42.460Z,1001.61
2017-03-19T04:35:22.947Z,1001.61
2017-03-19T04:36:03.435Z,1001.6
2017-03-19T04:36:43.930Z,1001.63
2017-03-19T04:37:24.414Z,1001.59
2017-03-19T04:38:04.915Z,1001.54
2017-03-19T04:38:45.398Z,1001.61
2017-03-19T04:39:25.891Z,1001.59
2017-03-19T04:40:06.379Z,1001.55
2017-03-19T04:42:34.313Z,1001.46
2017-03-19T04:43:14.815Z,1001.42
2017-03-19T04:43:55.313Z,1001.43
2017-03-19T04:44:35.831Z,1001.39
2017-03-19T04:45:16.308Z,1001.48
2017-03-19T04:45:56.801Z,1001.46
2017-03-19T04:46:37.268Z,1001.56
2017-03-19T04:47:17.763Z,1001.51
2017-03-19T04:47:58.251Z,1001.51
2017-03-19T04:48:38.756Z,1001.55
2017-03-19T04:49:19.248Z,1001.62
2017-03-19T04:49:59.740Z,1001.62
2017-03-19T04:50:40.214Z,1001.61
2017-03-19T04:51:20.713Z,1001.55
2017-03-19T04:52:01.195Z,1001.52
2017-03-19T04:52:41.669Z,1001.51
2017-03-19T04:53:22.169Z,1001.59
2017-03-19T04:54:02.662Z,1001.68
2017-03-19T04:54:43.145Z,1001.65
2017-03-19T04:55:23.615Z,1001.58
2017-03-19T04:56:04.100Z,1001.65
2017-03-19T04:56:44.597Z,1001.6
2017-03-19T04:57:25.094Z,1001.63
2017-03-19T04:58:05.580Z,1001.63
2017-03-19T04:58:46.072Z,1001.59
2017-03-19T04:59:26.557Z,1001.55
2017-03-19T05:00:07.045Z,1001.61
2017-03-19T05:00:47.543Z,1001.59
2017-03-19T05:01:28.036Z,1001.54
2017-03-19T05:02:08.536Z,1001.58
2017-03-19T05:02:49.023Z,1001.53
2017-03-19T05:03:29.513Z,1001.6
2017-03-19T05:04:10.012Z,1001.59
2017-03-19T05:04:50.498Z,1001.66
2017-03-19T05:05:30.987Z,1001.59
2017-03-19T05:06:11.486Z,1001.6
2017-03-19T05:06:51.980Z,1001.61
2017-03-19T05:07:32.454Z,1001.52
2017-03-19T05:08:12.896Z,1001.58
2017-03-19T05:10:25.595Z,1001.58
2017-03-19T05:11:06.095Z,1001.6
2017-03-19T05:11:46.610Z,1001.61
2017-03-19T05:12:27.034Z,1001.62
2017-03-19T05:13:07.514Z,1001.62
2017-03-19T05:13:47.992Z,1001.63
2017-03-19T05:14:28.494Z,1001.62
2017-03-19T05:15:08.975Z,1001.63
2017-03-19T05:15:49.475Z,1001.61
2017-03-19T05:16:29.965Z,1001.67
2017-03-19T05:17:10.424Z,1001.64
2017-03-19T05:19:23.111Z,1001.58
2017-03-19T05:20:03.592Z,1001.6
2017-03-19T05:20:44.083Z,1001.53
2017-03-19T05:21:24.575Z,1001.56
2017-03-19T05:22:05.067Z,1001.62
2017-03-19T05:22:45.567Z,1001.6
2017-03-19T05:23:26.041Z,1001.63
2017-03-19T05:24:06.529Z,1001.64
2017-03-19T05:24:47.044Z,1001.63
2017-03-19T05:25:27.538Z,1001.68
2017-03-19T05:26:08.011Z,1001.73
2017-03-19T05:26:48.506Z,1001.74
2017-03-19T05:27:28.993Z,1001.75
2017-03-19T05:28:09.482Z,1001.78
2017-03-19T05:28:49.948Z,1001.8
2017-03-19T05:29:30.435Z,1001.77
2017-03-19T05:30:10.909Z,1001.78
2017-03-19T05:30:51.398Z,1001.82
2017-03-19T05:31:31.877Z,1001.85
2017-03-19T05:33:49.666Z,1001.92
2017-03-19T05:34:30.149Z,1001.9
2017-03-19T05:35:10.637Z,1001.93
2017-03-19T05:35:51.115Z,1001.88
2017-03-19T05:36:31.602Z,1001.89
2017-03-19T05:37:12.088Z,1001.91
2017-03-19T05:37:52.571Z,1001.91
2017-03-19T05:38:33.047Z,1001.91
2017-03-19T05:39:13.533Z,1001.89
2017-03-19T05:39:54.029Z,1001.87
2017-03-19T05:40:34.493Z,1001.89
2017-03-19T05:41:14.986Z,1001.85
2017-03-19T05:41:55.463Z,1001.89
2017-03-19T05:42:35.966Z,1001.85
2017-03-19T05:43:16.435Z,1001.85
2017-03-19T05:43:56.930Z,1001.87
2017-03-19T05:44:37.409Z,1001.86
2017-03-19T05:45:17.898Z,1001.86
2017-03-19T05:45:58.394Z,1001.86
2017-03-19T05:46:38.876Z,1001.84
2017-03-19T05:47:19.357Z,1001.87
2017-03-19T05:47:59.846Z,1001.93
2017-03-19T05:48:40.330Z,1001.86
2017-03-19T05:49:20.811Z,1001.82
2017-03-19T05:50:01.308Z,1001.81
2017-03-19T05:50:41.792Z,1001.86
2017-03-19T05:51:22.293Z,1001.82
2017-03-19T05:52:02.786Z,1001.86
2017-03-19T05:52:43.273Z,1001.9
2017-03-19T05:53:23.769Z,1001.89
2017-03-19T05:54:04.262Z,1001.83
2017-03-19T05:54:44.745Z,1001.88
2017-03-19T05:55:25.244Z,1001.81
2017-03-19T05:56:05.738Z,1001.82
2017-03-19T05:56:46.223Z,1001.81
2017-03-19T05:57:26.717Z,1001.79
2017-03-19T05:58:07.215Z,1001.85
2017-03-19T05:58:47.701Z,1001.95
2017-03-19T05:59:28.207Z,1001.92
2017-03-19T06:00:08.691Z,1001.93
2017-03-19T06:00:49.170Z,1001.89
2017-03-19T06:01:29.652Z,1001.88
2017-03-19T06:02:10.145Z,1001.89
2017-03-19T06:02:50.632Z,1001.84
2017-03-19T06:03:31.118Z,1001.86
2017-03-19T06:04:11.603Z,1001.89
2017-03-19T06:04:52.101Z,1001.84
2017-03-19T06:05:32.580Z,1001.85
2017-03-19T06:06:13.061Z,1001.87
2017-03-19T06:06:53.553Z,1001.92
2017-03-19T06:07:34.039Z,1001.77
2017-03-19T06:08:14.521Z,1001.82
2017-03-19T06:08:55.020Z,1001.91
2017-03-19T06:09:35.518Z,1001.89
2017-03-19T06:10:15.990Z,1001.91
2017-03-19T06:10:56.482Z,1001.89
2017-03-19T06:11:36.969Z,1001.9
2017-03-19T06:12:17.454Z,1001.84
2017-03-19T06:12:57.910Z,1001.89
2017-03-19T06:13:38.386Z,1001.89
2017-03-19T06:14:18.840Z,1001.92
2017-03-19T06:14:59.330Z,1001.91
2017-03-19T06:15:39.819Z,1001.89
2017-03-19T06:16:20.307Z,1001.93
2017-03-19T06:17:00.787Z,1002.03
2017-03-19T06:17:41.290Z,1001.92
2017-03-19T06:18:21.780Z,1001.9
2017-03-19T06:19:02.257Z,1001.89
2017-03-19T06:19:42.744Z,1001.85
2017-03-19T06:20:23.254Z,1001.92
2017-03-19T06:21:03.740Z,1001.86
2017-03-19T06:21:44.239Z,1001.88
2017-03-19T06:22:24.732Z,1001.89
2017-03-19T06:23:05.213Z,1001.87
2017-03-19T06:23:45.716Z,1001.89
2017-03-19T06:24:26.208Z,1001.92
2017-03-19T06:25:06.698Z,1001.87
2017-03-19T06:25:47.184Z,1001.82
2017-03-19T06:26:27.685Z,1001.9
2017-03-19T06:27:08.169Z,1001.84
2017-03-19T06:27:48.659Z,1001.83
2017-03-19T06:28:29.163Z,1001.82
2017-03-19T06:29:09.649Z,1001.8
2017-03-19T06:29:50.149Z,1001.81
2017-03-19T06:30:30.650Z,1001.81
2017-03-19T06:31:11.134Z,1001.78
2017-03-19T06:31:51.626Z,1001.78
2017-03-19T06:32:32.121Z,1001.77
2017-03-19T06:33:12.620Z,1001.76
2017-03-19T06:33:53.105Z,1001.77
2017-03-19T06:34:33.594Z,1001.83
2017-03-19T06:35:14.085Z,1001.76
2017-03-19T06:35:54.585Z,1001.76
2017-03-19T06:36:35.074Z,1001.77
2017-03-19T06:37:15.571Z,1001.81
2017-03-19T06:37:56.059Z,1001.79
2017-03-19T06:38:36.549Z,1001.83
2017-03-19T06:39:17.040Z,1001.81
2017-03-19T06:39:57.517Z,1001.87
2017-03-19T06:40:38.017Z,1001.86
2017-03-19T06:41:18.431Z,1001.88
2017-03-19T06:43:10.997Z,1001.82
2017-03-19T06:43:51.459Z,1001.9
2017-03-19T06:44:31.956Z,1001.88
2017-03-19T06:45:12.444Z,1001.92
2017-03-19T06:45:52.936Z,1001.79
2017-03-19T06:46:33.409Z,1001.93
2017-03-19T06:47:13.892Z,1001.97
2017-03-19T06:47:54.381Z,1001.94
2017-03-19T06:48:34.854Z,1001.91
2017-03-19T06:49:15.327Z,1002.01
2017-03-19T06:49:55.815Z,1001.88
2017-03-19T06:50:36.326Z,1002
2017-03-19T06:51:16.791Z,1002
2017-03-19T06:51:57.281Z,1001.99
2017-03-19T06:52:37.778Z,1002.07
2017-03-19T06:53:18.865Z,1002.06
2017-03-19T06:53:59.350Z,1001.92
2017-03-19T06:54:40.439Z,1001.97
2017-03-19T06:56:33.004Z,1002.01
2017-03-19T06:57:13.442Z,1001.91
2017-03-19T06:57:53.907Z,1002.07
2017-03-19T06:58:34.406Z,1002.04
2017-03-19T06:59:14.943Z,1001.93
2017-03-19T06:59:55.416Z,1002
2017-03-19T07:00:35.899Z,1002.05
2017-03-19T07:01:16.381Z,1002.04
2017-03-19T07:01:56.873Z,1001.97
2017-03-19T07:02:37.376Z,1001.98
2017-03-19T07:03:17.830Z,1001.93
2017-03-19T07:03:58.313Z,1001.99
2017-03-19T07:04:38.800Z,1001.98
2017-03-19T07:05:19.309Z,1001.96
2017-03-19T07:05:59.794Z,1002.03
2017-03-19T07:06:40.303Z,1001.98
2017-03-19T07:07:20.785Z,1001.88
2017-03-19T07:08:01.269Z,1002.02
2017-03-19T07:08:41.768Z,1001.96
2017-03-19T07:09:22.263Z,1001.94
2017-03-19T07:10:02.751Z,1001.97
2017-03-19T07:10:43.279Z,1002.04
2017-03-19T07:11:23.740Z,1001.91
2017-03-19T07:12:04.214Z,1001.92
2017-03-19T07:12:44.692Z,1001.9
2017-03-19T07:13:25.183Z,1001.95
2017-03-19T07:14:05.675Z,1001.97
2017-03-19T07:14:46.164Z,1001.93
2017-03-19T07:15:26.667Z,1002.05
2017-03-19T07:16:07.151Z,1002
2017-03-19T07:16:47.592Z,1001.97
2017-03-19T07:17:28.033Z,1002.02
2017-03-19T07:18:08.488Z,1002.05
2017-03-19T07:18:48.985Z,1002.04
2017-03-19T07:19:29.419Z,1002.08
2017-03-19T07:20:09.872Z,1002.11
2017-03-19T07:20:50.360Z,1002.09
2017-03-19T07:21:30.846Z,1002.11
2017-03-19T07:22:11.348Z,1002.02
2017-03-19T07:22:51.841Z,1002.05
2017-03-19T07:23:32.322Z,1001.97
2017-03-19T07:24:12.828Z,1002.06
2017-03-19T07:24:53.320Z,1002.08
2017-03-19T07:25:33.815Z,1002.06
2017-03-19T07:26:14.285Z,1002.03
2017-03-19T07:26:54.782Z,1002.01
2017-03-19T07:27:35.269Z,1002.05
2017-03-19T07:28:15.761Z,1002
2017-03-19T07:28:56.254Z,1002.04
2017-03-19T07:29:36.745Z,1002.04
2017-03-19T07:30:17.232Z,1002.07
2017-03-19T07:30:57.746Z,1002.06
2017-03-19T07:31:38.227Z,1002.05
2017-03-19T07:32:18.704Z,1002.12
2017-03-19T07:32:59.199Z,1002.15
2017-03-19T07:33:39.684Z,1002.22
2017-03-19T07:34:20.173Z,1002.17
2017-03-19T07:35:00.654Z,1002.23
2017-03-19T07:35:41.150Z,1002.22
2017-03-19T07:36:21.636Z,1002.17
2017-03-19T07:37:02.128Z,1002.22
2017-03-19T07:37:42.635Z,1002.2
2017-03-19T07:38:23.127Z,1002.18
2017-03-19T07:39:03.624Z,1002.29
2017-03-19T07:39:44.091Z,1002.24
2017-03-19T07:40:24.574Z,1002.3
2017-03-19T07:41:05.070Z,1002.3
2017-03-19T07:41:45.558Z,1002.2
2017-03-19T07:42:26.052Z,1002.26
2017-03-19T07:43:06.547Z,1002.28
2017-03-19T07:43:47.023Z,1002.25
2017-03-19T07:44:27.524Z,1002.22
2017-03-19T07:45:08.008Z,1002.29
2017-03-19T07:45:48.493Z,1002.2
2017-03-19T07:46:29.001Z,1002.28
2017-03-19T07:47:09.489Z,1002.31
2017-03-19T07:47:49.995Z,1002.31
2017-03-19T07:48:30.482Z,1002.26
2017-03-19T07:49:10.989Z,1002.26
2017-03-19T07:49:51.476Z,1002.35
2017-03-19T07:50:31.960Z,1002.28
2017-03-19T07:51:12.445Z,1002.24
2017-03-19T07:51:52.943Z,1002.24
2017-03-19T07:52:33.415Z,1002.28
2017-03-19T07:53:13.951Z,1002.28
2017-03-19T07:53:54.451Z,1002.34
2017-03-19T07:54:34.959Z,1002.31
2017-03-19T07:55:15.432Z,1002.31
2017-03-19T07:55:55.930Z,1002.31
2017-03-19T07:56:36.976Z,1002.33
2017-03-19T07:57:17.465Z,1002.31
2017-03-19T07:57:57.954Z,1002.33
2017-03-19T07:58:38.446Z,1002.29
2017-03-19T07:59:18.936Z,1002.31
2017-03-19T07:59:59.416Z,1002.26
2017-03-19T08:00:39.908Z,1002.31
2017-03-19T08:01:20.413Z,1002.32
2017-03-19T08:02:00.914Z,1002.28
2017-03-19T08:02:41.432Z,1002.27
2017-03-19T08:03:21.925Z,1002.28
2017-03-19T08:04:02.422Z,1002.23
2017-03-19T08:04:42.907Z,1002.27
2017-03-19T08:05:23.384Z,1002.25
2017-03-19T08:06:03.877Z,1002.21
2017-03-19T08:06:45.306Z,1002.27
2017-03-19T08:07:25.793Z,1002.26
2017-03-19T08:08:06.280Z,1002.26
2017-03-19T08:08:46.784Z,1002.25
2017-03-19T08:09:27.274Z,1002.28
2017-03-19T08:10:07.752Z,1002.24
2017-03-19T08:10:48.254Z,1002.23
2017-03-19T08:11:28.740Z,1002.27
2017-03-19T08:12:09.222Z,1002.27
2017-03-19T08:12:49.693Z,1002.27
2017-03-19T08:13:30.174Z,1002.27
2017-03-19T08:14:10.661Z,1002.18
2017-03-19T08:14:51.148Z,1002.23
2017-03-19T08:15:31.644Z,1002.2
2017-03-19T08:16:12.132Z,1002.16
2017-03-19T08:16:52.616Z,1002.23
2017-03-19T08:17:33.073Z,1002.19
2017-03-19T08:18:13.568Z,1002.17
2017-03-19T08:18:54.050Z,1002.19
2017-03-19T08:19:34.534Z,1002.21
2017-03-19T08:20:15.009Z,1002.2
2017-03-19T08:20:55.493Z,1002.24
2017-03-19T08:21:35.965Z,1002.21
2017-03-19T08:22:16.415Z,1002.23
2017-03-19T08:22:56.909Z,1002.22
2017-03-19T08:23:37.396Z,1002.14
2017-03-19T08:24:17.887Z,1002.17
2017-03-19T08:24:58.369Z,1002.14
2017-03-19T08:25:38.856Z,1002.17
2017-03-19T08:26:19.334Z,1002.14